createdAt,value
2023-11-15T00:00:49.532Z,1.80
2023-11-15T00:03:37.536Z,1.60
2023-11-15T00:06:06.560Z,1.70
2023-11-15T00:08:34.773Z,1.50
2023-11-15T00:11:03.122Z,1.60
2023-11-15T00:13:31.108Z,1.80
2023-11-15T00:15:59.237Z,1.50
2023-11-15T00:18:27.870Z,1.80
2023-11-15T00:20:56.058Z,2.00
2023-11-15T00:23:24.885Z,2.20
2023-11-15T00:25:52.912Z,2.40
2023-11-15T00:28:20.941Z,2.70
2023-11-15T00:30:49.009Z,2.60
2023-11-15T00:33:17.196Z,2.50
2023-11-15T00:35:45.244Z,2.60
2023-11-15T00:38:13.574Z,2.90
2023-11-15T00:40:43.233Z,2.90
2023-11-15T00:43:11.514Z,3.00
2023-11-15T00:45:39.618Z,3.10
2023-11-15T00:48:07.717Z,3.40
2023-11-15T00:50:35.809Z,3.40
2023-11-15T00:53:04.948Z,3.10
2023-11-15T00:55:32.858Z,3.00
2023-11-15T00:58:00.857Z,3.10
2023-11-15T01:00:33.864Z,3.10
2023-11-15T01:03:02.774Z,3.10
2023-11-15T01:05:31.023Z,3.00
2023-11-15T01:07:59.392Z,4.10
2023-11-15T01:10:27.654Z,3.10
2023-11-15T01:12:55.927Z,3.50
2023-11-15T01:15:24.315Z,3.30
2023-11-15T01:17:52.620Z,3.50
2023-11-15T01:20:20.839Z,4.00
2023-11-15T01:22:49.307Z,3.50
2023-11-15T01:25:17.390Z,2.90
2023-11-15T01:27:47.454Z,2.00
2023-11-15T01:30:15.727Z,1.40
2023-11-15T01:32:44.113Z,1.40
2023-11-15T01:35:12.553Z,1.20
2023-11-15T01:37:40.588Z,2.20
2023-11-15T01:40:09.228Z,1.10
2023-11-15T01:42:37.322Z,1.10
2023-11-15T01:45:07.528Z,1.30
2023-11-15T01:47:35.856Z,1.10
2023-11-15T01:50:08.797Z,1.70
2023-11-15T01:52:38.854Z,1.30
2023-11-15T01:55:10.502Z,1.20
2023-11-15T01:57:38.965Z,1.30
2023-11-15T02:00:10.143Z,1.60
2023-11-15T02:02:42.796Z,1.40
2023-11-15T02:05:11.088Z,1.30
2023-11-15T02:07:39.938Z,1.50
2023-11-15T02:10:09.140Z,1.40
2023-11-15T02:12:37.254Z,1.80
2023-11-15T02:15:06.032Z,1.80
2023-11-15T02:17:34.287Z,2.00
2023-11-15T02:20:06.225Z,1.80
2023-11-15T02:22:35.133Z,1.90
2023-11-15T02:25:03.297Z,2.10
2023-11-15T02:27:31.280Z,2.20
2023-11-15T02:29:59.394Z,2.50
2023-11-15T02:32:27.381Z,2.60
2023-11-15T02:34:56.288Z,3.70
2023-11-15T02:37:24.260Z,3.70
2023-11-15T02:39:52.322Z,5.40
2023-11-15T02:42:20.275Z,5.40
2023-11-15T02:44:48.328Z,6.10
2023-11-15T02:47:16.365Z,6.40
2023-11-15T02:49:46.468Z,6.00
2023-11-15T02:52:14.425Z,4.90
2023-11-15T02:54:42.653Z,4.70
2023-11-15T02:57:12.933Z,5.20
2023-11-15T02:59:41.160Z,5.00
2023-11-15T03:02:09.375Z,5.50
2023-11-15T03:04:37.351Z,5.00
2023-11-15T03:07:05.276Z,4.40
2023-11-15T03:09:33.168Z,4.50
2023-11-15T03:12:01.248Z,4.20
2023-11-15T03:14:29.336Z,4.60
2023-11-15T03:17:07.437Z,4.60
2023-11-15T03:19:35.433Z,5.00
2023-11-15T03:22:03.304Z,4.90
2023-11-15T03:24:31.326Z,5.30
2023-11-15T03:26:59.440Z,4.90
2023-11-15T03:29:27.552Z,5.50
2023-11-15T03:31:55.504Z,5.10
2023-11-15T03:34:23.478Z,5.20
2023-11-15T03:36:51.671Z,4.50
2023-11-15T03:39:20.799Z,4.40
2023-11-15T03:41:48.683Z,5.10
2023-11-15T03:44:16.919Z,3.80
2023-11-15T03:46:45.017Z,4.20
2023-11-15T03:49:12.934Z,4.00
2023-11-15T03:51:40.973Z,4.50
2023-11-15T03:54:09.948Z,4.00
2023-11-15T03:56:37.908Z,3.70
2023-11-15T03:59:06.975Z,2.90
2023-11-15T04:01:37.695Z,3.10
2023-11-15T04:04:08.430Z,3.10
2023-11-15T04:06:36.434Z,3.60
2023-11-15T04:09:06.726Z,3.50
2023-11-15T04:11:40.610Z,3.10
2023-11-15T04:16:36.719Z,2.70
2023-11-15T04:19:05.094Z,2.70
2023-11-15T04:21:33.300Z,2.60
2023-11-15T04:24:01.601Z,2.50
2023-11-15T04:26:30.110Z,2.20
2023-11-15T04:29:00.683Z,2.70
2023-11-15T04:31:28.894Z,3.00
2023-11-15T04:33:56.955Z,2.80
2023-11-15T04:36:25.407Z,2.70
2023-11-15T04:38:53.679Z,2.70
2023-11-15T04:41:21.983Z,2.80
2023-11-15T04:43:51.991Z,2.80
2023-11-15T04:46:20.672Z,2.90
2023-11-15T04:48:51.536Z,2.80
2023-11-15T04:51:20.456Z,3.20
2023-11-15T04:53:51.012Z,3.80
2023-11-15T04:56:20.527Z,3.50
2023-11-15T04:58:48.673Z,3.00
2023-11-15T05:01:18.244Z,4.10
2023-11-15T05:03:49.326Z,3.70
2023-11-15T05:06:17.741Z,4.10
2023-11-15T05:08:45.947Z,3.90
2023-11-15T05:11:14.316Z,3.70
2023-11-15T05:13:42.596Z,3.50
2023-11-15T05:16:11.152Z,4.40
2023-11-15T05:18:39.489Z,4.20
2023-11-15T05:21:08.062Z,4.10
2023-11-15T05:23:36.116Z,4.20
2023-11-15T05:26:04.642Z,4.10
2023-11-15T05:28:32.828Z,3.90
2023-11-15T05:31:01.382Z,3.50
2023-11-15T05:33:29.680Z,4.50
2023-11-15T05:35:58.148Z,3.40
2023-11-15T05:38:26.323Z,4.30
2023-11-15T05:40:54.665Z,3.70
2023-11-15T05:43:22.621Z,4.00
2023-11-15T05:45:50.643Z,4.00
2023-11-15T05:48:19.245Z,3.70
2023-11-15T05:50:47.401Z,4.50
2023-11-15T05:53:17.387Z,4.00
2023-11-15T05:55:45.367Z,4.50
2023-11-15T05:58:13.601Z,3.90
2023-11-15T06:00:41.468Z,4.30
2023-11-15T06:03:09.676Z,4.50
2023-11-15T06:05:37.805Z,4.70
2023-11-15T06:08:05.844Z,4.40
2023-11-15T06:10:33.988Z,5.10
2023-11-15T06:13:01.975Z,4.70
2023-11-15T06:15:30.229Z,5.20
2023-11-15T06:17:58.379Z,6.30
2023-11-15T06:20:26.950Z,6.00
2023-11-15T06:22:55.022Z,6.40
2023-11-15T06:25:23.204Z,7.30
2023-11-15T06:27:51.505Z,6.50
2023-11-15T06:30:20.302Z,5.50
2023-11-15T06:32:48.620Z,5.50
2023-11-15T06:35:20.488Z,4.80
2023-11-15T06:37:50.027Z,5.30
2023-11-15T06:40:19.787Z,5.30
2023-11-15T06:42:47.887Z,5.00
2023-11-15T06:45:18.692Z,4.40
2023-11-15T06:47:47.298Z,4.70
2023-11-15T06:50:17.511Z,4.50
2023-11-15T06:52:46.885Z,5.70
2023-11-15T06:55:16.659Z,5.60
2023-11-15T06:57:45.696Z,5.30
2023-11-15T07:00:14.462Z,4.80
2023-11-15T07:02:43.036Z,5.00
2023-11-15T07:05:12.122Z,4.60
2023-11-15T07:07:41.451Z,4.60
2023-11-15T07:10:09.937Z,4.40
2023-11-15T07:12:39.553Z,5.20
2023-11-15T07:15:16.610Z,5.40
2023-11-15T07:17:44.804Z,5.30
2023-11-15T07:20:14.592Z,4.50
2023-11-15T07:22:42.553Z,5.00
2023-11-15T07:25:14.092Z,5.40
2023-11-15T07:27:42.354Z,10.60
2023-11-15T07:30:13.508Z,8.70
2023-11-15T07:32:42.748Z,9.30
2023-11-15T07:35:10.768Z,7.50
2023-11-15T07:37:39.546Z,6.70
2023-11-15T07:40:13.482Z,6.70
2023-11-15T07:42:42.096Z,6.50
2023-11-15T07:45:10.765Z,9.50
2023-11-15T07:47:39.967Z,8.70
2023-11-15T07:50:10.267Z,7.70
2023-11-15T07:52:38.409Z,8.50
2023-11-15T07:55:07.077Z,8.30
2023-11-15T07:57:35.072Z,7.60
2023-11-15T08:00:05.503Z,8.20
2023-11-15T08:02:33.803Z,8.70
2023-11-15T08:05:02.126Z,9.50
2023-11-15T08:07:30.346Z,7.30
2023-11-15T08:09:58.497Z,7.80
2023-11-15T08:12:27.404Z,6.00
2023-11-15T08:14:55.587Z,7.10
2023-11-15T08:17:23.551Z,7.70
2023-11-15T08:19:51.785Z,6.10
2023-11-15T08:22:19.863Z,6.10
2023-11-15T08:24:48.298Z,6.50
2023-11-15T08:27:16.449Z,6.50
2023-11-15T08:29:44.399Z,6.30
2023-11-15T08:32:13.654Z,6.60
2023-11-15T08:34:42.673Z,7.50
2023-11-15T08:37:13.985Z,8.40
2023-11-15T08:39:43.640Z,7.70
2023-11-15T08:42:12.074Z,9.70
2023-11-15T08:44:44.808Z,10.20
2023-11-15T08:47:12.970Z,10.10
2023-11-15T08:49:40.881Z,10.20
2023-11-15T08:52:10.559Z,11.30
2023-11-15T08:54:38.615Z,12.00
2023-11-15T08:57:06.835Z,11.90
2023-11-15T08:59:37.230Z,11.50
2023-11-15T09:02:06.842Z,11.00
2023-11-15T09:04:35.445Z,10.00
2023-11-15T09:07:03.740Z,9.50
2023-11-15T09:09:39.247Z,9.90
2023-11-15T09:12:09.596Z,10.00
2023-11-15T09:14:37.923Z,9.30
2023-11-15T09:17:13.686Z,9.60
2023-11-15T09:19:41.906Z,9.60
2023-11-15T09:22:11.801Z,9.80
2023-11-15T09:24:39.997Z,10.10
2023-11-15T09:27:08.140Z,10.80
2023-11-15T09:29:36.232Z,11.10
2023-11-15T09:32:04.602Z,11.40
2023-11-15T09:34:32.756Z,11.90
2023-11-15T09:37:00.968Z,13.40
2023-11-15T09:39:30.571Z,17.70
2023-11-15T09:41:59.115Z,11.70
2023-11-15T09:44:27.526Z,13.10
2023-11-15T09:46:59.227Z,8.10
2023-11-15T09:49:28.167Z,9.50
2023-11-15T09:51:58.235Z,5.10
2023-11-15T09:54:27.426Z,5.00
2023-11-15T09:56:56.284Z,4.10
2023-11-15T09:59:24.570Z,5.70
2023-11-15T10:01:52.672Z,5.50
2023-11-15T10:04:25.351Z,4.60
2023-11-15T10:06:59.804Z,4.80
2023-11-15T10:09:42.250Z,4.70
2023-11-15T10:12:11.838Z,3.70
2023-11-15T10:14:54.373Z,4.10
2023-11-15T10:17:55.425Z,3.70
2023-11-15T10:20:27.126Z,3.70
2023-11-15T10:22:57.356Z,4.10
2023-11-15T10:25:28.314Z,4.90
2023-11-15T10:28:02.570Z,4.20
2023-11-15T10:30:30.849Z,4.00
2023-11-15T10:33:14.592Z,4.20
2023-11-15T10:35:44.626Z,3.70
2023-11-15T10:38:24.438Z,3.90
2023-11-15T10:40:53.640Z,3.80
2023-11-15T10:43:22.036Z,4.20
2023-11-15T10:45:53.413Z,4.60
2023-11-15T10:48:24.661Z,5.00
2023-11-15T10:50:59.473Z,5.30
2023-11-15T10:53:29.371Z,5.10
2023-11-15T10:55:58.871Z,4.40
2023-11-15T10:58:27.881Z,5.30
2023-11-15T11:00:56.944Z,4.70
2023-11-15T11:03:26.610Z,4.80
2023-11-15T11:06:04.126Z,6.20
2023-11-15T11:08:41.734Z,9.80
2023-11-15T11:11:10.163Z,11.20
2023-11-15T11:13:42.135Z,5.40
2023-11-15T11:16:35.798Z,3.80
2023-11-15T11:19:18.430Z,2.80
2023-11-15T11:22:05.895Z,2.20
2023-11-15T11:24:39.817Z,1.80
2023-11-15T11:27:15.534Z,1.60
2023-11-15T11:29:52.710Z,1.50
2023-11-15T11:32:28.105Z,1.40
2023-11-15T11:35:02.967Z,1.10
2023-11-15T11:37:53.872Z,1.40
2023-11-15T11:40:27.114Z,1.80
2023-11-15T11:43:11.570Z,1.60
2023-11-15T11:45:42.296Z,1.80
2023-11-15T11:48:27.403Z,1.60
2023-11-15T11:50:57.212Z,1.60
2023-11-15T11:53:25.708Z,1.10
2023-11-15T11:55:56.002Z,1.40
2023-11-15T11:58:29.391Z,1.30
2023-11-15T12:01:02.577Z,1.40
2023-11-15T12:03:32.181Z,1.70
2023-11-15T12:06:09.011Z,1.30
2023-11-15T12:08:39.977Z,1.50
2023-11-15T12:11:09.538Z,1.90
2023-11-15T12:13:49.369Z,1.60
2023-11-15T12:16:19.645Z,1.70
2023-11-15T12:19:06.409Z,1.50
2023-11-15T12:21:39.536Z,1.60
2023-11-15T12:24:08.072Z,2.20
2023-11-15T12:26:49.032Z,1.70
2023-11-15T12:29:21.333Z,1.40
2023-11-15T12:31:52.024Z,1.50
2023-11-15T12:34:21.856Z,1.40
2023-11-15T12:36:51.520Z,1.40
2023-11-15T12:39:23.295Z,1.30
2023-11-15T12:41:59.512Z,1.60
2023-11-15T12:44:27.670Z,1.40
2023-11-15T12:46:59.605Z,2.10
2023-11-15T12:49:28.085Z,1.60
2023-11-15T12:51:56.064Z,1.50
2023-11-15T12:54:24.212Z,1.50
2023-11-15T12:57:17.733Z,1.40
2023-11-15T12:59:51.006Z,1.30
2023-11-15T13:02:29.161Z,1.60
2023-11-15T13:04:58.519Z,1.30
2023-11-15T13:07:28.108Z,1.50
2023-11-15T13:09:56.510Z,1.50
2023-11-15T13:12:26.184Z,1.60
2023-11-15T13:14:56.045Z,1.60
2023-11-15T13:17:28.241Z,1.70
2023-11-15T13:20:01.529Z,1.70
2023-11-15T13:22:31.831Z,1.70
2023-11-15T13:24:59.994Z,1.80
2023-11-15T13:27:27.884Z,1.70
2023-11-15T13:29:56.001Z,2.20
2023-11-15T13:32:24.936Z,2.00
2023-11-15T13:34:54.106Z,1.90
2023-11-15T13:37:22.154Z,2.10
2023-11-15T13:39:50.220Z,1.80
2023-11-15T13:42:18.358Z,1.90
2023-11-15T13:44:46.396Z,2.20
2023-11-15T13:47:15.175Z,2.10
2023-11-15T13:49:46.497Z,1.80
2023-11-15T13:52:15.239Z,1.90
2023-11-15T13:54:47.156Z,1.70
2023-11-15T13:57:18.929Z,1.90
2023-11-15T13:59:47.357Z,1.90
2023-11-15T14:02:15.734Z,1.60
2023-11-15T14:04:44.245Z,2.20
2023-11-15T14:07:12.256Z,1.90
2023-11-15T14:09:41.043Z,1.50
2023-11-15T14:12:10.074Z,2.10
2023-11-15T14:14:44.248Z,1.50
2023-11-15T14:17:12.622Z,2.00
2023-11-15T14:19:41.355Z,2.30
2023-11-15T14:22:13.269Z,2.10
2023-11-15T14:24:41.641Z,1.70
2023-11-15T14:27:09.830Z,1.60
2023-11-15T14:29:37.864Z,1.70
2023-11-15T14:32:08.900Z,2.30
2023-11-15T14:34:37.179Z,1.90
2023-11-15T14:37:05.133Z,2.60
2023-11-15T14:39:33.268Z,2.40
2023-11-15T14:42:05.710Z,2.00
2023-11-15T14:44:34.832Z,1.80
2023-11-15T14:47:02.976Z,2.10
2023-11-15T14:49:31.115Z,2.20
2023-11-15T14:52:11.799Z,1.80
2023-11-15T14:54:47.078Z,1.80
2023-11-15T14:57:15.722Z,1.80
2023-11-15T14:59:44.980Z,1.90
2023-11-15T15:02:14.598Z,1.70
2023-11-15T15:04:45.632Z,1.80
2023-11-15T15:07:16.021Z,2.00
2023-11-15T15:09:45.407Z,1.70
2023-11-15T15:12:14.258Z,1.70
2023-11-15T15:14:43.003Z,1.60
2023-11-15T15:17:23.561Z,1.90
2023-11-15T15:19:54.809Z,1.90
2023-11-15T15:22:23.540Z,1.80
2023-11-15T15:24:51.728Z,2.00
2023-11-15T15:27:20.063Z,1.90
2023-11-15T15:29:50.452Z,2.00
2023-11-15T15:32:19.097Z,2.00
2023-11-15T15:34:47.539Z,2.10
2023-11-15T15:37:16.634Z,1.80
2023-11-15T15:39:44.761Z,2.10
2023-11-15T15:42:12.982Z,2.10
2023-11-15T15:44:41.293Z,1.90
2023-11-15T15:47:09.634Z,1.90
2023-11-15T15:49:42.829Z,1.80
2023-11-15T15:52:14.747Z,2.00
2023-11-15T15:54:43.917Z,2.20
2023-11-15T15:57:12.025Z,2.00
2023-11-15T15:59:43.507Z,2.10
2023-11-15T16:02:12.012Z,2.30
2023-11-15T16:04:42.821Z,2.40
2023-11-15T16:07:11.588Z,2.10
2023-11-15T16:09:42.831Z,2.70
2023-11-15T16:12:11.670Z,2.00
2023-11-15T16:14:39.851Z,2.00
2023-11-15T16:17:08.903Z,2.20
2023-11-15T16:19:37.175Z,2.20
2023-11-15T16:22:05.467Z,2.20
2023-11-15T16:24:33.441Z,2.60
2023-11-15T16:27:04.845Z,2.70
2023-11-15T16:29:33.660Z,2.70
2023-11-15T16:32:02.044Z,3.30
2023-11-15T16:34:30.228Z,3.00
2023-11-15T16:36:59.789Z,3.00
2023-11-15T16:39:28.077Z,3.10
2023-11-15T16:41:56.315Z,3.10
2023-11-15T16:44:26.864Z,3.20
2023-11-15T16:46:54.915Z,2.90
2023-11-15T16:49:23.574Z,2.70
2023-11-15T16:51:51.733Z,2.60
2023-11-15T16:54:20.380Z,2.80
2023-11-15T16:56:48.464Z,3.40
2023-11-15T16:59:16.447Z,3.80
2023-11-15T17:01:44.760Z,4.10
2023-11-15T17:04:12.885Z,4.70
2023-11-15T17:06:41.267Z,3.30
2023-11-15T17:09:09.454Z,3.60
2023-11-15T17:11:37.628Z,2.70
2023-11-15T17:14:07.424Z,2.40
2023-11-15T17:16:35.596Z,2.40
2023-11-15T17:19:03.757Z,2.10
2023-11-15T17:21:32.001Z,2.60
2023-11-15T17:24:00.231Z,2.70
2023-11-15T17:26:32.337Z,2.80
2023-11-15T17:29:00.654Z,2.70
2023-11-15T17:31:29.651Z,2.50
2023-11-15T17:33:57.925Z,3.00
2023-11-15T17:36:29.414Z,3.20
2023-11-15T17:38:58.021Z,2.90
2023-11-15T17:41:27.289Z,3.00
2023-11-15T17:43:55.361Z,2.70
2023-11-15T17:46:26.634Z,2.50
2023-11-15T17:48:56.574Z,2.50
2023-11-15T17:51:24.537Z,2.90
2023-11-15T17:53:54.363Z,2.90
2023-11-15T17:56:22.673Z,2.30
2023-11-15T17:58:52.361Z,2.90
2023-11-15T18:01:21.846Z,2.60
2023-11-15T18:03:50.238Z,2.40
2023-11-15T18:06:23.613Z,2.40
2023-11-15T18:08:53.002Z,2.30
2023-11-15T18:11:21.050Z,2.10
2023-11-15T18:13:49.064Z,2.20
2023-11-15T18:16:17.258Z,2.20
2023-11-15T18:18:45.383Z,2.40
2023-11-15T18:21:13.523Z,2.50
2023-11-15T18:23:42.000Z,2.50
2023-11-15T18:26:09.886Z,2.30
2023-11-15T18:28:39.295Z,2.20
2023-11-15T18:31:08.247Z,2.20
2023-11-15T18:33:37.444Z,2.00
2023-11-15T18:36:08.917Z,1.90
2023-11-15T18:38:37.945Z,2.00
2023-11-15T18:41:09.247Z,2.00
2023-11-15T18:43:37.894Z,2.20
2023-11-15T18:46:06.465Z,2.20
2023-11-15T18:48:36.147Z,2.40
2023-11-15T18:51:04.390Z,3.10
2023-11-15T18:53:32.561Z,2.40
2023-11-15T18:56:01.423Z,2.20
2023-11-15T18:58:29.622Z,2.10
2023-11-15T19:00:58.206Z,2.10
2023-11-15T19:03:26.454Z,1.20
2023-11-15T19:05:57.217Z,1.00
2023-11-15T19:08:25.347Z,1.20
2023-11-15T19:10:57.845Z,1.10
2023-11-15T19:13:28.664Z,1.20
2023-11-15T19:15:59.239Z,1.10
2023-11-15T19:18:28.031Z,2.00
2023-11-15T19:20:58.911Z,1.30
2023-11-15T19:23:27.212Z,1.00
2023-11-15T19:25:55.588Z,1.20
2023-11-15T19:28:23.540Z,1.10
2023-11-15T19:30:51.578Z,1.40
2023-11-15T19:33:22.147Z,1.30
2023-11-15T19:35:51.209Z,1.40
2023-11-15T19:38:20.229Z,1.40
2023-11-15T19:40:48.476Z,1.20
2023-11-15T19:43:16.531Z,1.10
2023-11-15T19:45:45.573Z,1.90
2023-11-15T19:48:13.872Z,2.80
2023-11-15T19:50:41.964Z,2.10
2023-11-15T19:53:10.775Z,2.00
2023-11-15T19:55:39.600Z,1.40
2023-11-15T19:58:07.927Z,1.40
2023-11-15T20:00:38.871Z,1.50
2023-11-15T20:03:08.699Z,1.50
2023-11-15T20:05:40.021Z,1.60
2023-11-15T20:08:08.307Z,2.10
2023-11-15T20:10:37.318Z,1.90
2023-11-15T20:13:06.621Z,1.90
2023-11-15T20:15:35.117Z,2.00
2023-11-15T20:18:03.692Z,1.80
2023-11-15T20:20:31.759Z,1.40
2023-11-15T20:23:01.614Z,1.50
2023-11-15T20:25:29.811Z,1.30
2023-11-15T20:27:57.897Z,1.70
2023-11-15T20:30:27.140Z,2.40
2023-11-15T20:32:56.729Z,2.40
2023-11-15T20:35:25.209Z,2.20
2023-11-15T20:37:53.385Z,1.70
2023-11-15T20:40:23.197Z,1.80
2023-11-15T20:42:51.700Z,2.10
2023-11-15T20:45:20.002Z,2.00
2023-11-15T20:47:48.347Z,1.50
2023-11-15T20:50:16.625Z,1.50
2023-11-15T20:52:44.987Z,2.20
2023-11-15T20:55:13.152Z,2.00
2023-11-15T20:57:41.181Z,1.40
2023-11-15T21:00:23.496Z,1.50
2023-11-15T21:02:52.919Z,1.80
2023-11-15T21:05:21.324Z,1.40
2023-11-15T21:07:49.323Z,1.20
2023-11-15T21:10:17.714Z,1.50
2023-11-15T21:12:47.179Z,1.80
2023-11-15T21:15:16.873Z,1.60
2023-11-15T21:17:45.829Z,1.80
2023-11-15T21:20:14.831Z,4.10
2023-11-15T21:22:44.107Z,3.80
2023-11-15T21:25:15.152Z,3.40
2023-11-15T21:27:44.008Z,3.20
2023-11-15T21:30:13.769Z,3.00
2023-11-15T21:32:42.956Z,3.50
2023-11-15T21:35:12.582Z,3.90
2023-11-15T21:37:45.706Z,2.40
2023-11-15T21:40:19.524Z,2.90
2023-11-15T21:42:49.569Z,3.00
2023-11-15T21:45:18.446Z,3.70
2023-11-15T21:47:47.936Z,4.70
2023-11-15T21:50:20.006Z,4.40
2023-11-15T21:52:51.970Z,3.90
2023-11-15T21:55:20.432Z,3.50
2023-11-15T21:57:49.048Z,3.50
2023-11-15T22:00:21.790Z,3.20
2023-11-15T22:02:50.306Z,3.20
2023-11-15T22:05:18.753Z,3.00
2023-11-15T22:07:47.876Z,3.50
2023-11-15T22:10:16.328Z,2.90
2023-11-15T22:12:45.885Z,3.10
2023-11-15T22:15:14.375Z,2.90
2023-11-15T22:17:42.507Z,2.30
2023-11-15T22:20:12.083Z,1.80
2023-11-15T22:22:40.556Z,1.80
2023-11-15T22:25:09.162Z,2.10
2023-11-15T22:27:37.405Z,2.50
2023-11-15T22:30:08.224Z,2.10
2023-11-15T22:32:36.421Z,2.40
2023-11-15T22:35:05.921Z,2.10
2023-11-15T22:37:34.381Z,2.10
2023-11-15T22:40:02.634Z,1.90
2023-11-15T22:42:30.749Z,2.30
2023-11-15T22:44:58.792Z,2.20
2023-11-15T22:47:26.793Z,2.50
2023-11-15T22:49:54.850Z,2.40
2023-11-15T22:52:22.868Z,2.20
2023-11-15T22:54:51.847Z,3.10
2023-11-15T22:57:19.909Z,3.40
2023-11-15T22:59:51.168Z,2.00
2023-11-15T23:02:20.447Z,2.60
2023-11-15T23:04:48.781Z,3.30
2023-11-15T23:07:21.867Z,2.20
2023-11-15T23:09:50.894Z,2.70
2023-11-15T23:12:18.932Z,2.20
2023-11-15T23:14:47.073Z,3.50
2023-11-15T23:17:15.157Z,3.00
2023-11-15T23:19:43.883Z,2.50
2023-11-15T23:22:12.150Z,3.50
2023-11-15T23:24:41.044Z,3.40
2023-11-15T23:27:11.165Z,2.80
2023-11-15T23:29:39.352Z,2.60
2023-11-15T23:32:08.699Z,3.60
2023-11-15T23:34:37.622Z,2.70
2023-11-15T23:37:05.991Z,2.50
2023-11-15T23:39:34.637Z,2.10
2023-11-15T23:42:02.809Z,2.30
2023-11-15T23:44:33.118Z,2.30
2023-11-15T23:47:01.303Z,2.20
2023-11-15T23:49:30.483Z,2.30
2023-11-15T23:51:58.598Z,2.10
2023-11-15T23:54:26.697Z,2.30
2023-11-15T23:56:56.437Z,3.20
2023-11-15T23:59:25.031Z,2.60
